CSAV Loncomilla — VRFB3 — position and weather

sailwx.info

Track history (hours):
 
Tides and Currents Weather Stations Pressure Air Temp Water Temp Dewpoint Dewpoint Depression Visibility Wind Speed Wind Dir Waves Ship Positions

CSAV Loncomilla

Last reported at 2014-Nov-14 05:12 UTC. Time now 2014-Nov-23 01:13 UTC.
Position N 26°01' W 078°15'.
Warning: this ship's position is 8 days out of date.

Length 261 m; draft 10.8 m.

MMSI: 477207400.

Date/timePositionNaut miles runAvg speedWind from/ knotsBaromVisibWave heightAir tempDewpointWater temp
2014-Nov-14 05:12N 26°01' W 078°15'6816.4
2014-Nov-14 01:03N 26°11' W 079°29'816.5
2014-Nov-14 00:33N 26°11' W 079°38'1616.4
2014-Nov-13 23:33N 26°07' W 079°56'10 9.8
2014-Nov-13 22:33N 26°05' W 080°07'1 0.9
2014-Nov-13 21:24N 26°04' W 080°07'0 0.0
2014-Nov-13 20:27N 26°04' W 080°07'0 0.0
2014-Nov-13 19:27N 26°04' W 080°07'0 0.0
2014-Nov-13 18:27N 26°04' W 080°07'0 0.0
2014-Nov-13 17:30N 26°04' W 080°07'0 0.0
2014-Nov-13 16:30N 26°04' W 080°07'0 0.0
2014-Nov-13 15:30N 26°04' W 080°07'0 0.0
2014-Nov-13 14:33N 26°04' W 080°07'0 0.0
2014-Nov-13 13:33N 26°04' W 080°07'0 0.0
2014-Nov-13 12:33N 26°04' W 080°07'0 0.0
2014-Nov-13 11:33N 26°04' W 080°07'1 0.7
2014-Nov-13 10:33N 26°05' W 080°07'4 3.6
2014-Nov-13 09:33N 26°06' W 080°03'8 8.0
2014-Nov-13 08:33N 26°13' W 079°59'10 9.9
2014-Nov-13 07:33N 26°23' W 079°58'10 9.8
2014-Nov-13 06:33N 26°33' W 079°57'10 9.8
2014-Nov-13 05:33N 26°42' W 079°55'10 9.9
2014-Nov-13 04:33N 26°52' W 079°55'9 9.4
2014-Nov-13 03:33N 27°02' W 079°55'  
2014-Nov-07 16:25N 39°16' W 075°21'1416.2
2014-Nov-07 15:34N 39°26' W 075°33'1110.7
2014-Nov-07 14:33N 39°37' W 075°35'1010.4
2014-Nov-07 13:33N 39°46' W 075°28'1110.0
2014-Nov-07 12:30N 39°51' W 075°16'5 0.6
2014-Nov-07 03:23N 39°50' W 075°22'8 9.9
2014-Nov-07 02:33N 39°44' W 075°30'1110.8
2014-Nov-07 01:33N 39°33' W 075°32'1010.3
2014-Nov-07 00:33N 39°23' W 075°29'1413.7
2014-Nov-06 23:33N 39°13' W 075°17'70 7.0
2014-Nov-06 13:33N 39°38' W 073°53'1414.1
2014-Nov-06 12:33N 39°52' W 073°52'3411.4
2014-Nov-06 09:33N 40°26' W 073°47'9 9.5
2014-Nov-06 08:33N 40°30' W 073°58'1010.3
2014-Nov-06 07:33N 40°40' W 074°03'1 1.2
2014-Nov-06 06:33N 40°40' W 074°05'0 0.0
2014-Nov-06 05:33N 40°40' W 074°05'0 0.0
2014-Nov-06 04:30N 40°40' W 074°05'0 0.0
2014-Nov-06 03:33N 40°40' W 074°05'0 0.0
2014-Nov-06 02:30N 40°40' W 074°05'0 0.0
2014-Nov-06 01:33N 40°40' W 074°05'0 0.0
2014-Nov-06 00:33N 40°40' W 074°05'0 0.0
2014-Nov-05 23:33N 40°40' W 074°05'0 0.0
2014-Nov-05 22:33N 40°40' W 074°05'0 0.0
2014-Nov-05 21:33N 40°40' W 074°05'0 0.0
2014-Nov-05 20:33N 40°40' W 074°05'0 0.0
2014-Nov-05 19:33N 40°40' W 074°05'0 0.0
2014-Nov-05 18:33N 40°40' W 074°05'0 0.0
2014-Nov-05 17:33N 40°40' W 074°05'0 0.2
2014-Nov-05 16:33N 40°40' W 074°05'0 0.0
2014-Nov-05 15:33N 40°40' W 074°05'0 0.0
2014-Nov-05 14:33N 40°40' W 074°05'0 0.0
2014-Nov-05 13:33N 40°40' W 074°05'0 0.0
2014-Nov-05 12:33N 40°40' W 074°05'0 0.0
2014-Nov-05 11:33N 40°40' W 074°05'3 2.8
2014-Nov-05 10:34N 40°38' W 074°03'1211.7
2014-Nov-05 09:33N 40°29' W 073°54'8 7.5
2014-Nov-05 08:34N 40°24' W 073°46'2 2.2
2014-Nov-05 07:34N 40°22' W 073°47'7 7.2
2014-Nov-05 06:33N 40°15' W 073°46'9 8.9
2014-Nov-05 05:33N 40°06' W 073°44'9 8.8
2014-Nov-05 04:33N 39°57' W 073°43'9 8.6
2014-Nov-05 03:33N 39°49' W 073°42'8 8.5
2014-Nov-05 02:34N 39°40' W 073°41'8 8.0
2014-Nov-05 01:33N 39°32' W 073°41'1010.3
2014-Nov-05 00:33N 39°22' W 073°42'5 5.2
2014-Nov-04 23:33N 39°24' W 073°47'1111.1
2014-Nov-04 22:34N 39°14' W 073°52'7 7.3
2014-Nov-04 21:34N 39°07' W 073°54'1414.0
2014-Nov-04 20:33N 38°54' W 074°02'1515.4
2014-Nov-04 19:33N 38°41' W 074°13'1615.5
2014-Nov-04 18:33N 38°28' W 074°24'4 7.6
2014-Nov-04 18:00N 38°24' W 074°24'1227.5 200 / 151025.010.8 17.013.7
2014-Nov-04 17:33N 38°15' W 074°34'1413.9
2014-Nov-04 16:33N 38°03' W 074°44'1111.4
2014-Nov-04 15:34N 37°53' W 074°51'1111.4
2014-Nov-04 14:34N 37°43' W 074°58'1211.5
2014-Nov-04 13:34N 37°33' W 075°05'1211.8
2014-Nov-04 12:33N 37°23' W 075°12'  
Track history (hours):
 
Tides and Currents Weather Stations Pressure Air Temp Water Temp Dewpoint Dewpoint Depression Visibility Wind Speed Wind Dir Waves Ship Positions

CSAV Loncomilla

Last reported at 2014-Nov-14 05:12 UTC. Time now 2014-Nov-23 01:13 UTC.
Position N 26°01' W 078°15'.
Warning: this ship's position is 8 days out of date.

Length 261 m; draft 10.8 m.

MMSI: 477207400.

Date/timePositionNaut miles runAvg speedWind from/ knotsBaromVisibWave heightAir tempDewpointWater temp
2014-Nov-14 05:12N 26°01' W 078°15'6816.4
2014-Nov-14 01:03N 26°11' W 079°29'816.5
2014-Nov-14 00:33N 26°11' W 079°38'1616.4
2014-Nov-13 23:33N 26°07' W 079°56'10 9.8
2014-Nov-13 22:33N 26°05' W 080°07'1 0.9
2014-Nov-13 21:24N 26°04' W 080°07'0 0.0
2014-Nov-13 20:27N 26°04' W 080°07'0 0.0
2014-Nov-13 19:27N 26°04' W 080°07'0 0.0
2014-Nov-13 18:27N 26°04' W 080°07'0 0.0
2014-Nov-13 17:30N 26°04' W 080°07'0 0.0
2014-Nov-13 16:30N 26°04' W 080°07'0 0.0
2014-Nov-13 15:30N 26°04' W 080°07'0 0.0
2014-Nov-13 14:33N 26°04' W 080°07'0 0.0
2014-Nov-13 13:33N 26°04' W 080°07'0 0.0
2014-Nov-13 12:33N 26°04' W 080°07'0 0.0
2014-Nov-13 11:33N 26°04' W 080°07'1 0.7
2014-Nov-13 10:33N 26°05' W 080°07'4 3.6
2014-Nov-13 09:33N 26°06' W 080°03'8 8.0
2014-Nov-13 08:33N 26°13' W 079°59'10 9.9
2014-Nov-13 07:33N 26°23' W 079°58'10 9.8
2014-Nov-13 06:33N 26°33' W 079°57'10 9.8
2014-Nov-13 05:33N 26°42' W 079°55'10 9.9
2014-Nov-13 04:33N 26°52' W 079°55'9 9.4
2014-Nov-13 03:33N 27°02' W 079°55'  
2014-Nov-07 16:25N 39°16' W 075°21'1416.2
2014-Nov-07 15:34N 39°26' W 075°33'1110.7
2014-Nov-07 14:33N 39°37' W 075°35'1010.4
2014-Nov-07 13:33N 39°46' W 075°28'1110.0
2014-Nov-07 12:30N 39°51' W 075°16'5 0.6
2014-Nov-07 03:23N 39°50' W 075°22'8 9.9
2014-Nov-07 02:33N 39°44' W 075°30'1110.8
2014-Nov-07 01:33N 39°33' W 075°32'1010.3
2014-Nov-07 00:33N 39°23' W 075°29'1413.7
2014-Nov-06 23:33N 39°13' W 075°17'70 7.0
2014-Nov-06 13:33N 39°38' W 073°53'1414.1
2014-Nov-06 12:33N 39°52' W 073°52'3411.4
2014-Nov-06 09:33N 40°26' W 073°47'9 9.5
2014-Nov-06 08:33N 40°30' W 073°58'1010.3
2014-Nov-06 07:33N 40°40' W 074°03'1 1.2
2014-Nov-06 06:33N 40°40' W 074°05'0 0.0
2014-Nov-06 05:33N 40°40' W 074°05'0 0.0
2014-Nov-06 04:30N 40°40' W 074°05'0 0.0
2014-Nov-06 03:33N 40°40' W 074°05'0 0.0
2014-Nov-06 02:30N 40°40' W 074°05'0 0.0
2014-Nov-06 01:33N 40°40' W 074°05'0 0.0
2014-Nov-06 00:33N 40°40' W 074°05'0 0.0
2014-Nov-05 23:33N 40°40' W 074°05'0 0.0
2014-Nov-05 22:33N 40°40' W 074°05'0 0.0
2014-Nov-05 21:33N 40°40' W 074°05'0 0.0
2014-Nov-05 20:33N 40°40' W 074°05'0 0.0
2014-Nov-05 19:33N 40°40' W 074°05'0 0.0
2014-Nov-05 18:33N 40°40' W 074°05'0 0.0
2014-Nov-05 17:33N 40°40' W 074°05'0 0.2
2014-Nov-05 16:33N 40°40' W 074°05'0 0.0
2014-Nov-05 15:33N 40°40' W 074°05'0 0.0
2014-Nov-05 14:33N 40°40' W 074°05'0 0.0
2014-Nov-05 13:33N 40°40' W 074°05'0 0.0
2014-Nov-05 12:33N 40°40' W 074°05'0 0.0
2014-Nov-05 11:33N 40°40' W 074°05'3 2.8
2014-Nov-05 10:34N 40°38' W 074°03'1211.7
2014-Nov-05 09:33N 40°29' W 073°54'8 7.5
2014-Nov-05 08:34N 40°24' W 073°46'2 2.2
2014-Nov-05 07:34N 40°22' W 073°47'7 7.2
2014-Nov-05 06:33N 40°15' W 073°46'9 8.9
2014-Nov-05 05:33N 40°06' W 073°44'9 8.8
2014-Nov-05 04:33N 39°57' W 073°43'9 8.6
2014-Nov-05 03:33N 39°49' W 073°42'8 8.5
2014-Nov-05 02:34N 39°40' W 073°41'8 8.0
2014-Nov-05 01:33N 39°32' W 073°41'1010.3
2014-Nov-05 00:33N 39°22' W 073°42'5 5.2
2014-Nov-04 23:33N 39°24' W 073°47'1111.1
2014-Nov-04 22:34N 39°14' W 073°52'7 7.3
2014-Nov-04 21:34N 39°07' W 073°54'1414.0
2014-Nov-04 20:33N 38°54' W 074°02'1515.4
2014-Nov-04 19:33N 38°41' W 074°13'1615.5
2014-Nov-04 18:33N 38°28' W 074°24'4 7.6
2014-Nov-04 18:00N 38°24' W 074°24'1227.5 200 / 151025.010.8 17.013.7
2014-Nov-04 17:33N 38°15' W 074°34'1413.9
2014-Nov-04 16:33N 38°03' W 074°44'1111.4
2014-Nov-04 15:34N 37°53' W 074°51'1111.4
2014-Nov-04 14:34N 37°43' W 074°58'1211.5
2014-Nov-04 13:34N 37°33' W 075°05'1211.8
2014-Nov-04 12:33N 37°23' W 075°12'  

Dump ship's entire track history